sensor_id;sensor_type;location;lat;lon;timestamp;P1;durP1;ratioP1;P2;durP2;ratioP2
15871;SDS011;8035;51.962;7.162;2023-03-12T00:02:16;5.23;;;3.77;;
15871;SDS011;8035;51.962;7.162;2023-03-12T00:04:41;4.37;;;3.53;;
15871;SDS011;8035;51.962;7.162;2023-03-12T00:07:07;4.63;;;3.87;;
15871;SDS011;8035;51.962;7.162;2023-03-12T00:09:33;4.10;;;3.53;;
15871;SDS011;8035;51.962;7.162;2023-03-12T00:12:00;4.70;;;3.83;;
15871;SDS011;8035;51.962;7.162;2023-03-12T00:14:26;6.83;;;4.00;;
15871;SDS011;8035;51.962;7.162;2023-03-12T00:16:52;5.43;;;3.50;;
15871;SDS011;8035;51.962;7.162;2023-03-12T00:19:19;4.93;;;4.03;;
15871;SDS011;8035;51.962;7.162;2023-03-12T00:21:45;5.23;;;3.90;;
15871;SDS011;8035;51.962;7.162;2023-03-12T00:24:11;5.90;;;3.87;;
15871;SDS011;8035;51.962;7.162;2023-03-12T00:26:36;8.00;;;3.73;;
15871;SDS011;8035;51.962;7.162;2023-03-12T00:29:02;6.33;;;3.67;;
15871;SDS011;8035;51.962;7.162;2023-03-12T00:31:29;4.80;;;3.40;;
15871;SDS011;8035;51.962;7.162;2023-03-12T00:33:56;3.30;;;3.00;;
15871;SDS011;8035;51.962;7.162;2023-03-12T00:36:24;7.37;;;3.40;;
15871;SDS011;8035;51.962;7.162;2023-03-12T00:38:51;3.83;;;2.93;;
15871;SDS011;8035;51.962;7.162;2023-03-12T00:41:17;4.83;;;3.33;;
15871;SDS011;8035;51.962;7.162;2023-03-12T00:43:44;4.47;;;3.57;;
15871;SDS011;8035;51.962;7.162;2023-03-12T00:46:10;5.47;;;3.80;;
15871;SDS011;8035;51.962;7.162;2023-03-12T00:48:36;6.80;;;3.47;;
15871;SDS011;8035;51.962;7.162;2023-03-12T00:51:02;5.30;;;3.83;;
15871;SDS011;8035;51.962;7.162;2023-03-12T00:53:28;4.60;;;3.77;;
15871;SDS011;8035;51.962;7.162;2023-03-12T00:55:53;4.40;;;4.00;;
15871;SDS011;8035;51.962;7.162;2023-03-12T00:58:19;5.57;;;4.00;;
15871;SDS011;8035;51.962;7.162;2023-03-12T01:00:44;4.70;;;3.90;;
15871;SDS011;8035;51.962;7.162;2023-03-12T01:03:10;5.00;;;3.77;;
15871;SDS011;8035;51.962;7.162;2023-03-12T01:05:36;6.50;;;3.83;;
15871;SDS011;8035;51.962;7.162;2023-03-12T01:08:04;7.40;;;4.20;;
15871;SDS011;8035;51.962;7.162;2023-03-12T01:10:31;4.97;;;4.30;;
15871;SDS011;8035;51.962;7.162;2023-03-12T01:12:56;5.63;;;4.27;;
15871;SDS011;8035;51.962;7.162;2023-03-12T01:15:22;5.60;;;4.23;;
15871;SDS011;8035;51.962;7.162;2023-03-12T01:17:48;5.23;;;4.10;;
15871;SDS011;8035;51.962;7.162;2023-03-12T01:20:14;6.97;;;4.37;;
15871;SDS011;8035;51.962;7.162;2023-03-12T01:22:39;8.33;;;4.73;;
15871;SDS011;8035;51.962;7.162;2023-03-12T01:25:05;6.10;;;4.63;;
15871;SDS011;8035;51.962;7.162;2023-03-12T01:27:31;6.47;;;4.80;;
15871;SDS011;8035;51.962;7.162;2023-03-12T01:29:56;8.70;;;5.43;;
15871;SDS011;8035;51.962;7.162;2023-03-12T01:32:22;5.37;;;4.63;;
15871;SDS011;8035;51.962;7.162;2023-03-12T01:34:47;6.17;;;4.53;;
15871;SDS011;8035;51.962;7.162;2023-03-12T01:37:13;5.73;;;4.83;;
15871;SDS011;8035;51.962;7.162;2023-03-12T01:39:39;5.40;;;4.30;;
15871;SDS011;8035;51.962;7.162;2023-03-12T01:42:05;6.80;;;4.27;;
15871;SDS011;8035;51.962;7.162;2023-03-12T01:44:46;10.27;;;4.87;;
15871;SDS011;8035;51.962;7.162;2023-03-12T01:47:17;6.13;;;4.37;;
15871;SDS011;8035;51.962;7.162;2023-03-12T01:49:43;9.07;;;4.00;;
15871;SDS011;8035;51.962;7.162;2023-03-12T01:52:12;5.37;;;3.93;;
15871;SDS011;8035;51.962;7.162;2023-03-12T01:57:17;4.97;;;3.70;;
15871;SDS011;8035;51.962;7.162;2023-03-12T02:00:07;4.80;;;3.80;;
15871;SDS011;8035;51.962;7.162;2023-03-12T02:02:38;7.77;;;3.63;;
15871;SDS011;8035;51.962;7.162;2023-03-12T02:08:12;5.60;;;4.07;;
15871;SDS011;8035;51.962;7.162;2023-03-12T02:10:40;4.87;;;4.20;;
15871;SDS011;8035;51.962;7.162;2023-03-12T02:13:05;7.03;;;3.80;;
15871;SDS011;8035;51.962;7.162;2023-03-12T02:15:32;6.93;;;3.33;;
15871;SDS011;8035;51.962;7.162;2023-03-12T02:18:01;6.30;;;3.27;;
15871;SDS011;8035;51.962;7.162;2023-03-12T02:23:37;4.07;;;3.13;;
15871;SDS011;8035;51.962;7.162;2023-03-12T02:26:16;6.30;;;3.40;;
15871;SDS011;8035;51.962;7.162;2023-03-12T02:28:43;5.97;;;3.70;;
15871;SDS011;8035;51.962;7.162;2023-03-12T02:31:13;5.67;;;3.57;;
15871;SDS011;8035;51.962;7.162;2023-03-12T02:33:43;7.07;;;4.00;;
15871;SDS011;8035;51.962;7.162;2023-03-12T02:36:09;6.13;;;3.93;;
15871;SDS011;8035;51.962;7.162;2023-03-12T02:38:43;6.37;;;3.30;;
15871;SDS011;8035;51.962;7.162;2023-03-12T02:43:50;5.43;;;3.30;;
15871;SDS011;8035;51.962;7.162;2023-03-12T02:46:20;4.40;;;3.60;;
15871;SDS011;8035;51.962;7.162;2023-03-12T02:48:46;5.13;;;3.53;;
15871;SDS011;8035;51.962;7.162;2023-03-12T02:51:12;8.40;;;3.67;;
15871;SDS011;8035;51.962;7.162;2023-03-12T02:53:37;5.40;;;3.47;;
15871;SDS011;8035;51.962;7.162;2023-03-12T02:56:03;5.70;;;3.70;;
15871;SDS011;8035;51.962;7.162;2023-03-12T02:58:30;5.90;;;3.90;;
15871;SDS011;8035;51.962;7.162;2023-03-12T03:00:56;4.07;;;3.33;;
15871;SDS011;8035;51.962;7.162;2023-03-12T03:03:21;6.53;;;3.70;;
15871;SDS011;8035;51.962;7.162;2023-03-12T03:05:47;6.50;;;3.67;;
15871;SDS011;8035;51.962;7.162;2023-03-12T03:08:13;6.17;;;3.80;;
15871;SDS011;8035;51.962;7.162;2023-03-12T03:10:38;5.73;;;3.57;;
15871;SDS011;8035;51.962;7.162;2023-03-12T03:13:04;7.23;;;4.30;;
15871;SDS011;8035;51.962;7.162;2023-03-12T03:15:30;4.70;;;3.90;;
15871;SDS011;8035;51.962;7.162;2023-03-12T03:17:55;5.50;;;4.30;;
15871;SDS011;8035;51.962;7.162;2023-03-12T03:20:22;5.57;;;4.07;;
15871;SDS011;8035;51.962;7.162;2023-03-12T03:22:49;4.27;;;3.87;;
15871;SDS011;8035;51.962;7.162;2023-03-12T03:25:15;5.03;;;3.77;;
15871;SDS011;8035;51.962;7.162;2023-03-12T03:27:42;6.23;;;4.20;;
15871;SDS011;8035;51.962;7.162;2023-03-12T03:30:08;5.13;;;4.17;;
15871;SDS011;8035;51.962;7.162;2023-03-12T03:32:34;5.40;;;3.97;;
15871;SDS011;8035;51.962;7.162;2023-03-12T03:34:59;9.33;;;4.23;;
15871;SDS011;8035;51.962;7.162;2023-03-12T03:37:25;4.47;;;3.80;;
15871;SDS011;8035;51.962;7.162;2023-03-12T03:39:50;4.70;;;4.17;;
15871;SDS011;8035;51.962;7.162;2023-03-12T03:42:16;4.10;;;3.70;;
15871;SDS011;8035;51.962;7.162;2023-03-12T03:44:42;5.63;;;3.83;;
15871;SDS011;8035;51.962;7.162;2023-03-12T03:47:07;5.10;;;3.87;;
15871;SDS011;8035;51.962;7.162;2023-03-12T03:49:33;4.90;;;3.73;;
15871;SDS011;8035;51.962;7.162;2023-03-12T03:51:58;5.97;;;3.67;;
15871;SDS011;8035;51.962;7.162;2023-03-12T03:54:24;6.50;;;3.93;;
15871;SDS011;8035;51.962;7.162;2023-03-12T03:56:50;6.87;;;3.60;;
15871;SDS011;8035;51.962;7.162;2023-03-12T03:59:15;5.67;;;3.33;;
15871;SDS011;8035;51.962;7.162;2023-03-12T04:01:41;4.43;;;3.27;;
15871;SDS011;8035;51.962;7.162;2023-03-12T04:04:06;6.17;;;3.37;;
15871;SDS011;8035;51.962;7.162;2023-03-12T04:06:32;6.47;;;3.70;;
15871;SDS011;8035;51.962;7.162;2023-03-12T04:08:58;8.97;;;3.70;;
15871;SDS011;8035;51.962;7.162;2023-03-12T04:11:24;6.17;;;3.80;;
15871;SDS011;8035;51.962;7.162;2023-03-12T04:13:50;4.63;;;3.30;;
15871;SDS011;8035;51.962;7.162;2023-03-12T04:16:16;5.77;;;3.87;;
15871;SDS011;8035;51.962;7.162;2023-03-12T04:18:42;3.30;;;3.00;;
15871;SDS011;8035;51.962;7.162;2023-03-12T04:21:09;4.10;;;3.37;;
15871;SDS011;8035;51.962;7.162;2023-03-12T04:23:36;6.17;;;3.27;;
15871;SDS011;8035;51.962;7.162;2023-03-12T04:26:03;5.77;;;3.90;;
15871;SDS011;8035;51.962;7.162;2023-03-12T04:28:29;4.03;;;3.30;;
15871;SDS011;8035;51.962;7.162;2023-03-12T04:30:58;3.80;;;3.30;;
15871;SDS011;8035;51.962;7.162;2023-03-12T04:33:29;4.43;;;3.07;;
15871;SDS011;8035;51.962;7.162;2023-03-12T04:35:56;4.80;;;3.37;;
15871;SDS011;8035;51.962;7.162;2023-03-12T04:38:23;4.53;;;3.30;;
15871;SDS011;8035;51.962;7.162;2023-03-12T04:40:59;8.27;;;2.93;;
15871;SDS011;8035;51.962;7.162;2023-03-12T04:43:26;3.53;;;3.07;;
15871;SDS011;8035;51.962;7.162;2023-03-12T04:45:53;3.33;;;2.90;;
15871;SDS011;8035;51.962;7.162;2023-03-12T04:48:19;3.70;;;3.07;;
15871;SDS011;8035;51.962;7.162;2023-03-12T04:50:45;6.97;;;3.30;;
15871;SDS011;8035;51.962;7.162;2023-03-12T04:53:11;3.93;;;3.37;;
15871;SDS011;8035;51.962;7.162;2023-03-12T04:55:36;6.40;;;3.00;;
15871;SDS011;8035;51.962;7.162;2023-03-12T04:58:02;5.53;;;2.97;;
15871;SDS011;8035;51.962;7.162;2023-03-12T05:00:28;4.57;;;3.17;;
15871;SDS011;8035;51.962;7.162;2023-03-12T05:02:53;7.40;;;3.20;;
15871;SDS011;8035;51.962;7.162;2023-03-12T05:05:19;4.60;;;3.17;;
15871;SDS011;8035;51.962;7.162;2023-03-12T05:07:45;3.60;;;3.10;;
15871;SDS011;8035;51.962;7.162;2023-03-12T05:10:11;6.83;;;2.80;;
15871;SDS011;8035;51.962;7.162;2023-03-12T05:12:36;4.73;;;2.80;;
15871;SDS011;8035;51.962;7.162;2023-03-12T05:15:02;3.87;;;3.10;;
15871;SDS011;8035;51.962;7.162;2023-03-12T05:17:28;4.27;;;2.80;;
15871;SDS011;8035;51.962;7.162;2023-03-12T05:19:54;6.97;;;3.70;;
15871;SDS011;8035;51.962;7.162;2023-03-12T05:22:19;5.10;;;3.10;;
15871;SDS011;8035;51.962;7.162;2023-03-12T05:25:04;7.40;;;3.07;;
15871;SDS011;8035;51.962;7.162;2023-03-12T05:27:30;3.40;;;3.00;;
15871;SDS011;8035;51.962;7.162;2023-03-12T05:30:15;4.13;;;3.00;;
15871;SDS011;8035;51.962;7.162;2023-03-12T05:32:40;6.30;;;2.90;;
15871;SDS011;8035;51.962;7.162;2023-03-12T05:35:06;4.53;;;2.97;;
15871;SDS011;8035;51.962;7.162;2023-03-12T05:37:32;4.40;;;2.73;;
15871;SDS011;8035;51.962;7.162;2023-03-12T05:39:58;4.27;;;3.00;;
15871;SDS011;8035;51.962;7.162;2023-03-12T05:42:24;4.17;;;2.90;;
15871;SDS011;8035;51.962;7.162;2023-03-12T05:44:50;4.77;;;3.10;;
15871;SDS011;8035;51.962;7.162;2023-03-12T05:47:16;4.80;;;2.70;;
15871;SDS011;8035;51.962;7.162;2023-03-12T05:49:42;3.87;;;2.90;;
15871;SDS011;8035;51.962;7.162;2023-03-12T05:52:08;4.43;;;3.10;;
15871;SDS011;8035;51.962;7.162;2023-03-12T05:54:34;6.60;;;3.20;;
15871;SDS011;8035;51.962;7.162;2023-03-12T05:57:00;10.90;;;3.87;;
15871;SDS011;8035;51.962;7.162;2023-03-12T05:59:27;5.60;;;3.60;;
15871;SDS011;8035;51.962;7.162;2023-03-12T06:01:53;8.97;;;3.90;;
15871;SDS011;8035;51.962;7.162;2023-03-12T06:04:19;4.50;;;3.27;;
15871;SDS011;8035;51.962;7.162;2023-03-12T06:06:45;3.50;;;3.07;;
15871;SDS011;8035;51.962;7.162;2023-03-12T06:09:11;3.67;;;3.17;;
15871;SDS011;8035;51.962;7.162;2023-03-12T06:11:36;3.23;;;2.80;;
15871;SDS011;8035;51.962;7.162;2023-03-12T06:14:02;3.83;;;2.63;;
15871;SDS011;8035;51.962;7.162;2023-03-12T06:16:28;5.27;;;2.80;;
15871;SDS011;8035;51.962;7.162;2023-03-12T06:18:55;3.13;;;2.80;;
15871;SDS011;8035;51.962;7.162;2023-03-12T06:21:23;6.43;;;3.10;;
15871;SDS011;8035;51.962;7.162;2023-03-12T06:23:51;5.57;;;2.67;;
15871;SDS011;8035;51.962;7.162;2023-03-12T06:26:35;5.93;;;3.00;;
15871;SDS011;8035;51.962;7.162;2023-03-12T06:29:02;3.63;;;2.80;;
15871;SDS011;8035;51.962;7.162;2023-03-12T06:31:27;4.40;;;3.30;;
15871;SDS011;8035;51.962;7.162;2023-03-12T06:33:53;3.20;;;2.47;;
15871;SDS011;8035;51.962;7.162;2023-03-12T06:36:19;5.77;;;3.27;;
15871;SDS011;8035;51.962;7.162;2023-03-12T06:38:45;5.70;;;3.00;;
15871;SDS011;8035;51.962;7.162;2023-03-12T06:41:11;3.13;;;2.83;;
15871;SDS011;8035;51.962;7.162;2023-03-12T06:43:39;6.17;;;3.83;;
15871;SDS011;8035;51.962;7.162;2023-03-12T06:46:07;5.03;;;3.00;;
15871;SDS011;8035;51.962;7.162;2023-03-12T06:48:35;3.63;;;2.87;;
15871;SDS011;8035;51.962;7.162;2023-03-12T06:51:02;4.17;;;2.63;;
15871;SDS011;8035;51.962;7.162;2023-03-12T06:53:28;8.47;;;2.77;;
15871;SDS011;8035;51.962;7.162;2023-03-12T06:55:54;4.00;;;2.60;;
15871;SDS011;8035;51.962;7.162;2023-03-12T06:58:20;4.87;;;2.50;;
15871;SDS011;8035;51.962;7.162;2023-03-12T07:00:45;3.73;;;3.00;;
15871;SDS011;8035;51.962;7.162;2023-03-12T07:03:11;5.07;;;2.90;;
15871;SDS011;8035;51.962;7.162;2023-03-12T07:05:36;6.73;;;2.70;;
15871;SDS011;8035;51.962;7.162;2023-03-12T07:08:02;3.57;;;2.70;;
15871;SDS011;8035;51.962;7.162;2023-03-12T07:10:28;7.57;;;2.70;;
15871;SDS011;8035;51.962;7.162;2023-03-12T07:12:54;8.90;;;2.70;;
15871;SDS011;8035;51.962;7.162;2023-03-12T07:15:20;3.87;;;2.30;;
15871;SDS011;8035;51.962;7.162;2023-03-12T07:17:47;2.90;;;2.40;;
15871;SDS011;8035;51.962;7.162;2023-03-12T07:20:32;4.33;;;2.67;;
15871;SDS011;8035;51.962;7.162;2023-03-12T07:23:00;4.03;;;2.30;;
15871;SDS011;8035;51.962;7.162;2023-03-12T07:25:26;4.33;;;2.83;;
15871;SDS011;8035;51.962;7.162;2023-03-12T07:27:51;4.63;;;2.73;;
15871;SDS011;8035;51.962;7.162;2023-03-12T07:30:17;4.40;;;3.43;;
15871;SDS011;8035;51.962;7.162;2023-03-12T07:32:43;3.93;;;2.50;;
15871;SDS011;8035;51.962;7.162;2023-03-12T07:35:08;3.97;;;2.73;;
15871;SDS011;8035;51.962;7.162;2023-03-12T07:37:34;3.30;;;2.60;;
15871;SDS011;8035;51.962;7.162;2023-03-12T07:40:00;3.17;;;2.40;;
15871;SDS011;8035;51.962;7.162;2023-03-12T07:42:25;3.33;;;2.33;;
15871;SDS011;8035;51.962;7.162;2023-03-12T07:44:51;4.87;;;3.00;;
15871;SDS011;8035;51.962;7.162;2023-03-12T07:50:01;6.07;;;2.47;;
15871;SDS011;8035;51.962;7.162;2023-03-12T07:52:27;3.40;;;2.33;;
15871;SDS011;8035;51.962;7.162;2023-03-12T07:54:52;3.67;;;2.63;;
15871;SDS011;8035;51.962;7.162;2023-03-12T07:57:20;4.33;;;2.40;;
15871;SDS011;8035;51.962;7.162;2023-03-12T07:59:46;6.53;;;2.40;;
15871;SDS011;8035;51.962;7.162;2023-03-12T08:02:12;5.73;;;2.30;;
15871;SDS011;8035;51.962;7.162;2023-03-12T08:04:38;3.90;;;2.00;;
15871;SDS011;8035;51.962;7.162;2023-03-12T08:07:04;3.07;;;2.13;;
15871;SDS011;8035;51.962;7.162;2023-03-12T08:09:29;3.17;;;2.30;;
15871;SDS011;8035;51.962;7.162;2023-03-12T08:11:56;5.03;;;2.20;;
15871;SDS011;8035;51.962;7.162;2023-03-12T08:14:22;5.00;;;3.20;;
15871;SDS011;8035;51.962;7.162;2023-03-12T08:16:47;3.10;;;2.37;;
15871;SDS011;8035;51.962;7.162;2023-03-12T08:19:13;3.17;;;2.33;;
15871;SDS011;8035;51.962;7.162;2023-03-12T08:21:39;2.50;;;2.30;;
15871;SDS011;8035;51.962;7.162;2023-03-12T08:24:04;6.93;;;2.70;;
15871;SDS011;8035;51.962;7.162;2023-03-12T08:26:30;4.63;;;2.50;;
15871;SDS011;8035;51.962;7.162;2023-03-12T08:28:56;4.17;;;2.60;;
15871;SDS011;8035;51.962;7.162;2023-03-12T08:31:24;5.30;;;2.87;;
15871;SDS011;8035;51.962;7.162;2023-03-12T08:33:50;7.13;;;3.03;;
15871;SDS011;8035;51.962;7.162;2023-03-12T08:36:16;7.33;;;3.47;;
15871;SDS011;8035;51.962;7.162;2023-03-12T08:38:42;4.80;;;3.30;;
15871;SDS011;8035;51.962;7.162;2023-03-12T08:41:07;5.00;;;3.40;;
15871;SDS011;8035;51.962;7.162;2023-03-12T08:43:34;9.67;;;4.10;;
15871;SDS011;8035;51.962;7.162;2023-03-12T08:46:00;4.67;;;3.97;;
15871;SDS011;8035;51.962;7.162;2023-03-12T08:48:27;6.10;;;3.30;;
15871;SDS011;8035;51.962;7.162;2023-03-12T08:50:54;5.63;;;3.00;;
15871;SDS011;8035;51.962;7.162;2023-03-12T08:53:20;7.33;;;2.97;;
15871;SDS011;8035;51.962;7.162;2023-03-12T08:55:46;4.63;;;2.90;;
15871;SDS011;8035;51.962;7.162;2023-03-12T08:58:12;8.00;;;3.27;;
15871;SDS011;8035;51.962;7.162;2023-03-12T09:03:23;6.17;;;3.03;;
15871;SDS011;8035;51.962;7.162;2023-03-12T09:05:50;7.40;;;3.27;;
15871;SDS011;8035;51.962;7.162;2023-03-12T09:08:25;7.17;;;2.90;;
15871;SDS011;8035;51.962;7.162;2023-03-12T09:10:51;6.17;;;3.07;;
15871;SDS011;8035;51.962;7.162;2023-03-12T09:13:16;4.33;;;3.27;;
15871;SDS011;8035;51.962;7.162;2023-03-12T09:15:42;7.30;;;3.23;;
15871;SDS011;8035;51.962;7.162;2023-03-12T09:18:07;5.23;;;3.53;;
15871;SDS011;8035;51.962;7.162;2023-03-12T09:20:33;3.73;;;2.93;;
15871;SDS011;8035;51.962;7.162;2023-03-12T09:22:59;5.10;;;3.13;;
15871;SDS011;8035;51.962;7.162;2023-03-12T09:25:24;7.77;;;3.63;;
15871;SDS011;8035;51.962;7.162;2023-03-12T09:27:50;5.17;;;3.47;;
15871;SDS011;8035;51.962;7.162;2023-03-12T09:30:16;6.40;;;4.00;;
15871;SDS011;8035;51.962;7.162;2023-03-12T09:32:44;6.07;;;3.80;;
15871;SDS011;8035;51.962;7.162;2023-03-12T09:35:10;5.63;;;3.67;;
15871;SDS011;8035;51.962;7.162;2023-03-12T09:37:41;7.33;;;4.40;;
15871;SDS011;8035;51.962;7.162;2023-03-12T09:40:07;7.47;;;3.80;;
15871;SDS011;8035;51.962;7.162;2023-03-12T09:42:43;12.10;;;3.97;;
15871;SDS011;8035;51.962;7.162;2023-03-12T09:45:15;8.57;;;4.60;;
15871;SDS011;8035;51.962;7.162;2023-03-12T09:47:48;4.90;;;4.40;;
15871;SDS011;8035;51.962;7.162;2023-03-12T09:55:22;8.00;;;5.07;;
15871;SDS011;8035;51.962;7.162;2023-03-12T09:57:49;7.10;;;5.47;;
15871;SDS011;8035;51.962;7.162;2023-03-12T10:00:36;8.23;;;6.23;;
15871;SDS011;8035;51.962;7.162;2023-03-12T10:10:38;7.87;;;7.07;;
15871;SDS011;8035;51.962;7.162;2023-03-12T10:13:32;8.57;;;7.67;;
15871;SDS011;8035;51.962;7.162;2023-03-12T10:16:09;12.80;;;7.70;;
15871;SDS011;8035;51.962;7.162;2023-03-12T10:18:53;12.50;;;7.77;;
15871;SDS011;8035;51.962;7.162;2023-03-12T10:26:48;11.27;;;8.10;;
15871;SDS011;8035;51.962;7.162;2023-03-12T10:29:25;9.43;;;7.53;;
15871;SDS011;8035;51.962;7.162;2023-03-12T10:37:11;9.83;;;8.10;;
15871;SDS011;8035;51.962;7.162;2023-03-12T10:39:50;9.73;;;7.53;;
15871;SDS011;8035;51.962;7.162;2023-03-12T10:42:19;12.20;;;9.23;;
15871;SDS011;8035;51.962;7.162;2023-03-12T10:44:48;10.13;;;8.20;;
15871;SDS011;8035;51.962;7.162;2023-03-12T10:52:43;8.93;;;7.97;;
15871;SDS011;8035;51.962;7.162;2023-03-12T10:55:12;9.63;;;8.27;;
15871;SDS011;8035;51.962;7.162;2023-03-12T10:57:50;9.27;;;8.23;;
15871;SDS011;8035;51.962;7.162;2023-03-12T11:00:24;7.93;;;6.90;;
15871;SDS011;8035;51.962;7.162;2023-03-12T11:02:55;8.80;;;7.90;;
15871;SDS011;8035;51.962;7.162;2023-03-12T11:05:31;8.27;;;7.17;;
15871;SDS011;8035;51.962;7.162;2023-03-12T11:07:59;7.97;;;7.17;;
15871;SDS011;8035;51.962;7.162;2023-03-12T11:13:23;8.57;;;7.77;;
15871;SDS011;8035;51.962;7.162;2023-03-12T11:19:00;7.93;;;6.63;;
15871;SDS011;8035;51.962;7.162;2023-03-12T11:21:28;8.43;;;6.37;;
15871;SDS011;8035;51.962;7.162;2023-03-12T11:26:23;8.27;;;7.03;;
15871;SDS011;8035;51.962;7.162;2023-03-12T11:29:06;9.50;;;7.17;;
15871;SDS011;8035;51.962;7.162;2023-03-12T11:32:35;8.60;;;6.77;;
15871;SDS011;8035;51.962;7.162;2023-03-12T11:34:37;8.27;;;7.00;;
15871;SDS011;8035;51.962;7.162;2023-03-12T11:37:09;10.37;;;7.37;;
15871;SDS011;8035;51.962;7.162;2023-03-12T11:44:44;8.40;;;6.90;;
15871;SDS011;8035;51.962;7.162;2023-03-12T11:50:26;13.43;;;7.90;;
15871;SDS011;8035;51.962;7.162;2023-03-12T11:53:07;10.33;;;7.90;;
15871;SDS011;8035;51.962;7.162;2023-03-12T11:59:00;12.10;;;8.33;;
15871;SDS011;8035;51.962;7.162;2023-03-12T12:07:47;8.43;;;7.40;;
15871;SDS011;8035;51.962;7.162;2023-03-12T12:27:24;10.60;;;8.23;;
15871;SDS011;8035;51.962;7.162;2023-03-12T12:40:53;12.33;;;10.17;;
15871;SDS011;8035;51.962;7.162;2023-03-12T12:43:40;11.67;;;9.70;;
15871;SDS011;8035;51.962;7.162;2023-03-12T12:46:16;14.33;;;10.63;;
15871;SDS011;8035;51.962;7.162;2023-03-12T12:48:59;12.70;;;10.13;;
15871;SDS011;8035;51.962;7.162;2023-03-12T12:51:30;14.00;;;9.83;;
15871;SDS011;8035;51.962;7.162;2023-03-12T13:01:56;16.23;;;10.13;;
15871;SDS011;8035;51.962;7.162;2023-03-12T13:09:42;13.87;;;10.73;;
15871;SDS011;8035;51.962;7.162;2023-03-12T13:14:47;14.83;;;11.07;;
15871;SDS011;8035;51.962;7.162;2023-03-12T13:17:35;18.63;;;12.17;;
15871;SDS011;8035;51.962;7.162;2023-03-12T13:20:21;17.00;;;11.33;;
15871;SDS011;8035;51.962;7.162;2023-03-12T13:28:27;16.33;;;11.23;;
15871;SDS011;8035;51.962;7.162;2023-03-12T13:30:59;15.80;;;11.63;;
15871;SDS011;8035;51.962;7.162;2023-03-12T13:34:27;22.07;;;12.27;;
15871;SDS011;8035;51.962;7.162;2023-03-12T13:43:58;17.73;;;12.23;;
15871;SDS011;8035;51.962;7.162;2023-03-12T13:46:31;19.83;;;12.47;;
15871;SDS011;8035;51.962;7.162;2023-03-12T13:49:01;20.57;;;11.83;;
15871;SDS011;8035;51.962;7.162;2023-03-12T13:51:30;16.80;;;11.20;;
15871;SDS011;8035;51.962;7.162;2023-03-12T13:53:59;18.83;;;12.43;;
15871;SDS011;8035;51.962;7.162;2023-03-12T13:56:28;21.17;;;12.40;;
15871;SDS011;8035;51.962;7.162;2023-03-12T13:58:58;22.10;;;11.47;;
15871;SDS011;8035;51.962;7.162;2023-03-12T14:01:30;19.70;;;11.97;;
15871;SDS011;8035;51.962;7.162;2023-03-12T14:04:21;21.93;;;11.43;;
15871;SDS011;8035;51.962;7.162;2023-03-12T14:18:00;18.63;;;10.47;;
15871;SDS011;8035;51.962;7.162;2023-03-12T14:20:36;18.97;;;9.77;;
15871;SDS011;8035;51.962;7.162;2023-03-12T14:26:01;19.53;;;10.30;;
15871;SDS011;8035;51.962;7.162;2023-03-12T14:28:28;20.20;;;9.60;;
15871;SDS011;8035;51.962;7.162;2023-03-12T14:31:04;17.87;;;10.20;;
15871;SDS011;8035;51.962;7.162;2023-03-12T14:36:54;19.73;;;9.83;;
15871;SDS011;8035;51.962;7.162;2023-03-12T14:40:05;21.17;;;10.37;;
15871;SDS011;8035;51.962;7.162;2023-03-12T14:42:44;19.23;;;9.90;;
15871;SDS011;8035;51.962;7.162;2023-03-12T14:45:10;18.60;;;8.80;;
15871;SDS011;8035;51.962;7.162;2023-03-12T14:47:42;17.70;;;9.57;;
15871;SDS011;8035;51.962;7.162;2023-03-12T14:50:18;14.57;;;8.17;;
15871;SDS011;8035;51.962;7.162;2023-03-12T14:52:49;14.20;;;7.77;;
15871;SDS011;8035;51.962;7.162;2023-03-12T14:55:16;16.93;;;8.70;;
15871;SDS011;8035;51.962;7.162;2023-03-12T14:57:46;20.47;;;8.23;;
15871;SDS011;8035;51.962;7.162;2023-03-12T15:00:30;17.73;;;8.23;;
15871;SDS011;8035;51.962;7.162;2023-03-12T15:02:58;21.67;;;8.40;;
15871;SDS011;8035;51.962;7.162;2023-03-12T15:05:27;20.77;;;7.97;;
15871;SDS011;8035;51.962;7.162;2023-03-12T15:07:54;13.07;;;7.23;;
15871;SDS011;8035;51.962;7.162;2023-03-12T15:10:26;16.23;;;7.00;;
15871;SDS011;8035;51.962;7.162;2023-03-12T15:12:54;18.03;;;7.27;;
15871;SDS011;8035;51.962;7.162;2023-03-12T15:18:05;15.27;;;7.63;;
15871;SDS011;8035;51.962;7.162;2023-03-12T15:20:35;13.23;;;7.37;;
15871;SDS011;8035;51.962;7.162;2023-03-12T15:23:01;15.90;;;7.07;;
15871;SDS011;8035;51.962;7.162;2023-03-12T15:25:29;17.93;;;6.83;;
15871;SDS011;8035;51.962;7.162;2023-03-12T15:28:21;19.20;;;7.53;;
15871;SDS011;8035;51.962;7.162;2023-03-12T15:31:11;18.07;;;7.03;;
15871;SDS011;8035;51.962;7.162;2023-03-12T15:34:01;20.50;;;6.30;;
15871;SDS011;8035;51.962;7.162;2023-03-12T15:36:29;17.43;;;7.23;;
15871;SDS011;8035;51.962;7.162;2023-03-12T15:41:27;14.07;;;5.97;;
15871;SDS011;8035;51.962;7.162;2023-03-12T15:44:11;14.53;;;6.73;;
15871;SDS011;8035;51.962;7.162;2023-03-12T15:46:48;20.10;;;6.93;;
15871;SDS011;8035;51.962;7.162;2023-03-12T15:49:35;19.30;;;7.17;;
15871;SDS011;8035;51.962;7.162;2023-03-12T15:52:23;15.73;;;7.00;;
15871;SDS011;8035;51.962;7.162;2023-03-12T15:54:58;17.47;;;7.00;;
15871;SDS011;8035;51.962;7.162;2023-03-12T15:57:24;17.37;;;7.00;;
15871;SDS011;8035;51.962;7.162;2023-03-12T16:02:36;22.03;;;7.10;;
15871;SDS011;8035;51.962;7.162;2023-03-12T16:05:04;19.47;;;6.70;;
15871;SDS011;8035;51.962;7.162;2023-03-12T16:07:30;16.43;;;6.47;;
15871;SDS011;8035;51.962;7.162;2023-03-12T16:09:55;19.97;;;6.83;;
15871;SDS011;8035;51.962;7.162;2023-03-12T16:12:21;29.00;;;8.20;;
15871;SDS011;8035;51.962;7.162;2023-03-12T16:14:47;13.00;;;5.87;;
15871;SDS011;8035;51.962;7.162;2023-03-12T16:17:14;20.53;;;6.80;;
15871;SDS011;8035;51.962;7.162;2023-03-12T16:19:46;19.23;;;5.63;;
15871;SDS011;8035;51.962;7.162;2023-03-12T16:22:12;20.23;;;6.70;;
15871;SDS011;8035;51.962;7.162;2023-03-12T16:24:38;18.77;;;7.23;;
15871;SDS011;8035;51.962;7.162;2023-03-12T16:27:04;18.60;;;6.80;;
15871;SDS011;8035;51.962;7.162;2023-03-12T16:29:32;20.07;;;5.50;;
15871;SDS011;8035;51.962;7.162;2023-03-12T16:31:59;18.47;;;5.87;;
15871;SDS011;8035;51.962;7.162;2023-03-12T16:34:26;12.67;;;5.83;;
15871;SDS011;8035;51.962;7.162;2023-03-12T16:36:52;16.60;;;5.20;;
15871;SDS011;8035;51.962;7.162;2023-03-12T16:39:18;21.13;;;5.37;;
15871;SDS011;8035;51.962;7.162;2023-03-12T16:41:44;17.23;;;5.17;;
15871;SDS011;8035;51.962;7.162;2023-03-12T16:44:13;14.40;;;5.43;;
15871;SDS011;8035;51.962;7.162;2023-03-12T16:46:43;18.70;;;5.30;;
15871;SDS011;8035;51.962;7.162;2023-03-12T16:49:12;17.97;;;4.33;;
15871;SDS011;8035;51.962;7.162;2023-03-12T16:51:39;16.03;;;4.53;;
15871;SDS011;8035;51.962;7.162;2023-03-12T16:54:05;18.97;;;5.40;;
15871;SDS011;8035;51.962;7.162;2023-03-12T16:56:31;16.97;;;4.07;;
15871;SDS011;8035;51.962;7.162;2023-03-12T16:59:01;15.63;;;4.37;;
15871;SDS011;8035;51.962;7.162;2023-03-12T17:01:29;22.43;;;5.37;;
15871;SDS011;8035;51.962;7.162;2023-03-12T17:03:55;18.57;;;4.97;;
15871;SDS011;8035;51.962;7.162;2023-03-12T17:06:22;13.77;;;4.53;;
15871;SDS011;8035;51.962;7.162;2023-03-12T17:08:49;14.77;;;4.53;;
15871;SDS011;8035;51.962;7.162;2023-03-12T17:11:24;16.30;;;4.30;;
15871;SDS011;8035;51.962;7.162;2023-03-12T17:13:52;21.47;;;5.13;;
15871;SDS011;8035;51.962;7.162;2023-03-12T17:16:21;16.07;;;4.60;;
15871;SDS011;8035;51.962;7.162;2023-03-12T17:18:48;17.77;;;4.77;;
15871;SDS011;8035;51.962;7.162;2023-03-12T17:21:14;20.97;;;5.87;;
15871;SDS011;8035;51.962;7.162;2023-03-12T17:23:41;13.97;;;5.00;;
15871;SDS011;8035;51.962;7.162;2023-03-12T17:26:07;11.87;;;4.17;;
15871;SDS011;8035;51.962;7.162;2023-03-12T17:28:33;25.37;;;6.37;;
15871;SDS011;8035;51.962;7.162;2023-03-12T17:30:59;16.53;;;5.57;;
15871;SDS011;8035;51.962;7.162;2023-03-12T17:33:25;19.20;;;5.00;;
15871;SDS011;8035;51.962;7.162;2023-03-12T17:36:06;20.33;;;5.07;;
15871;SDS011;8035;51.962;7.162;2023-03-12T17:38:33;15.70;;;5.37;;
15871;SDS011;8035;51.962;7.162;2023-03-12T17:40:59;13.93;;;5.67;;